sensor_id;sensor_type;location;lat;lon;timestamp;P1;durP1;ratioP1;P2;durP2;ratioP2
69220;SDS011;56331;51.992;20.910;2022-10-15T00:01:06;13.88;;;9.30;;
69220;SDS011;56331;51.992;20.910;2022-10-15T00:03:39;13.25;;;9.10;;
69220;SDS011;56331;51.992;20.910;2022-10-15T00:06:07;11.83;;;8.63;;
69220;SDS011;56331;51.992;20.910;2022-10-15T00:08:38;12.63;;;9.15;;
69220;SDS011;56331;51.992;20.910;2022-10-15T00:11:06;11.70;;;8.55;;
69220;SDS011;56331;51.992;20.910;2022-10-15T00:13:35;10.85;;;8.93;;
69220;SDS011;56331;51.992;20.910;2022-10-15T00:16:03;11.95;;;8.85;;
69220;SDS011;56331;51.992;20.910;2022-10-15T00:18:31;12.95;;;9.03;;
69220;SDS011;56331;51.992;20.910;2022-10-15T00:20:58;11.30;;;8.50;;
69220;SDS011;56331;51.992;20.910;2022-10-15T00:23:26;12.13;;;9.03;;
69220;SDS011;56331;51.992;20.910;2022-10-15T00:25:59;11.10;;;8.63;;
69220;SDS011;56331;51.992;20.910;2022-10-15T00:28:27;11.28;;;8.63;;
69220;SDS011;56331;51.992;20.910;2022-10-15T00:30:58;13.08;;;8.95;;
69220;SDS011;56331;51.992;20.910;2022-10-15T00:33:30;11.60;;;8.53;;
69220;SDS011;56331;51.992;20.910;2022-10-15T00:35:57;11.57;;;9.00;;
69220;SDS011;56331;51.992;20.910;2022-10-15T00:38:25;11.57;;;8.33;;
69220;SDS011;56331;51.992;20.910;2022-10-15T00:40:51;10.20;;;8.73;;
69220;SDS011;56331;51.992;20.910;2022-10-15T00:43:33;11.48;;;8.93;;
69220;SDS011;56331;51.992;20.910;2022-10-15T00:46:04;11.88;;;8.38;;
69220;SDS011;56331;51.992;20.910;2022-10-15T00:48:33;11.90;;;8.70;;
69220;SDS011;56331;51.992;20.910;2022-10-15T00:51:00;12.68;;;9.30;;
69220;SDS011;56331;51.992;20.910;2022-10-15T00:55:56;12.43;;;8.78;;
69220;SDS011;56331;51.992;20.910;2022-10-15T00:58:23;13.90;;;9.35;;
69220;SDS011;56331;51.992;20.910;2022-10-15T01:00:53;12.95;;;8.48;;
69220;SDS011;56331;51.992;20.910;2022-10-15T01:03:21;13.08;;;8.85;;
69220;SDS011;56331;51.992;20.910;2022-10-15T01:05:48;12.13;;;8.60;;
69220;SDS011;56331;51.992;20.910;2022-10-15T01:08:16;14.33;;;9.68;;
69220;SDS011;56331;51.992;20.910;2022-10-15T01:10:46;10.25;;;8.68;;
69220;SDS011;56331;51.992;20.910;2022-10-15T01:13:35;11.43;;;8.15;;
69220;SDS011;56331;51.992;20.910;2022-10-15T01:16:22;11.15;;;8.60;;
69220;SDS011;56331;51.992;20.910;2022-10-15T01:19:01;11.20;;;8.53;;
69220;SDS011;56331;51.992;20.910;2022-10-15T01:21:34;11.25;;;8.60;;
69220;SDS011;56331;51.992;20.910;2022-10-15T01:27:08;12.03;;;8.65;;
69220;SDS011;56331;51.992;20.910;2022-10-15T01:29:48;11.88;;;8.83;;
69220;SDS011;56331;51.992;20.910;2022-10-15T01:32:18;11.85;;;8.68;;
69220;SDS011;56331;51.992;20.910;2022-10-15T01:41:19;11.73;;;8.68;;
69220;SDS011;56331;51.992;20.910;2022-10-15T01:43:11;10.25;;;8.35;;
69220;SDS011;56331;51.992;20.910;2022-10-15T01:45:42;9.55;;;7.97;;
69220;SDS011;56331;51.992;20.910;2022-10-15T01:48:11;11.88;;;8.63;;
69220;SDS011;56331;51.992;20.910;2022-10-15T01:50:39;12.73;;;8.48;;
69220;SDS011;56331;51.992;20.910;2022-10-15T01:53:12;10.55;;;8.13;;
69220;SDS011;56331;51.992;20.910;2022-10-15T01:58:09;10.95;;;8.58;;
69220;SDS011;56331;51.992;20.910;2022-10-15T02:00:38;11.13;;;8.63;;
69220;SDS011;56331;51.992;20.910;2022-10-15T02:03:06;11.93;;;9.35;;
69220;SDS011;56331;51.992;20.910;2022-10-15T02:05:38;12.78;;;9.13;;
69220;SDS011;56331;51.992;20.910;2022-10-15T02:10:56;11.63;;;9.05;;
69220;SDS011;56331;51.992;20.910;2022-10-15T02:13:31;11.83;;;9.40;;
69220;SDS011;56331;51.992;20.910;2022-10-15T02:16:22;13.53;;;9.90;;
69220;SDS011;56331;51.992;20.910;2022-10-15T02:21:44;12.45;;;9.25;;
69220;SDS011;56331;51.992;20.910;2022-10-15T02:26:50;13.45;;;9.78;;
69220;SDS011;56331;51.992;20.910;2022-10-15T02:31:47;12.00;;;9.78;;
69220;SDS011;56331;51.992;20.910;2022-10-15T02:34:20;12.82;;;9.80;;
69220;SDS011;56331;51.992;20.910;2022-10-15T02:39:13;14.00;;;10.05;;
69220;SDS011;56331;51.992;20.910;2022-10-15T02:41:43;15.50;;;10.28;;
69220;SDS011;56331;51.992;20.910;2022-10-15T02:44:11;11.73;;;9.53;;
69220;SDS011;56331;51.992;20.910;2022-10-15T02:46:38;11.30;;;8.90;;
69220;SDS011;56331;51.992;20.910;2022-10-15T02:49:05;12.50;;;10.05;;
69220;SDS011;56331;51.992;20.910;2022-10-15T02:51:32;12.68;;;9.50;;
69220;SDS011;56331;51.992;20.910;2022-10-15T02:54:00;13.35;;;10.32;;
69220;SDS011;56331;51.992;20.910;2022-10-15T02:56:29;12.85;;;9.85;;
69220;SDS011;56331;51.992;20.910;2022-10-15T02:58:55;13.05;;;9.88;;
69220;SDS011;56331;51.992;20.910;2022-10-15T03:01:22;11.40;;;9.53;;
69220;SDS011;56331;51.992;20.910;2022-10-15T03:03:48;13.43;;;10.20;;
69220;SDS011;56331;51.992;20.910;2022-10-15T03:06:14;12.63;;;9.98;;
69220;SDS011;56331;51.992;20.910;2022-10-15T03:08:41;12.98;;;10.43;;
69220;SDS011;56331;51.992;20.910;2022-10-15T03:11:09;13.45;;;10.08;;
69220;SDS011;56331;51.992;20.910;2022-10-15T03:13:39;12.95;;;10.08;;
69220;SDS011;56331;51.992;20.910;2022-10-15T03:16:07;11.97;;;9.65;;
69220;SDS011;56331;51.992;20.910;2022-10-15T03:18:35;13.62;;;10.50;;
69220;SDS011;56331;51.992;20.910;2022-10-15T03:21:02;12.05;;;9.63;;
69220;SDS011;56331;51.992;20.910;2022-10-15T03:23:29;11.18;;;9.25;;
69220;SDS011;56331;51.992;20.910;2022-10-15T03:25:55;12.45;;;9.48;;
69220;SDS011;56331;51.992;20.910;2022-10-15T03:28:22;12.53;;;9.53;;
69220;SDS011;56331;51.992;20.910;2022-10-15T03:30:48;12.13;;;10.20;;
69220;SDS011;56331;51.992;20.910;2022-10-15T03:33:15;12.58;;;9.50;;
69220;SDS011;56331;51.992;20.910;2022-10-15T03:35:41;11.97;;;9.60;;
69220;SDS011;56331;51.992;20.910;2022-10-15T03:38:08;11.22;;;9.25;;
69220;SDS011;56331;51.992;20.910;2022-10-15T03:40:34;10.98;;;9.25;;
69220;SDS011;56331;51.992;20.910;2022-10-15T03:43:00;11.88;;;9.58;;
69220;SDS011;56331;51.992;20.910;2022-10-15T03:45:27;12.13;;;9.33;;
69220;SDS011;56331;51.992;20.910;2022-10-15T03:47:53;12.25;;;9.83;;
69220;SDS011;56331;51.992;20.910;2022-10-15T03:50:19;13.00;;;9.98;;
69220;SDS011;56331;51.992;20.910;2022-10-15T03:52:46;11.68;;;9.55;;
69220;SDS011;56331;51.992;20.910;2022-10-15T03:55:12;13.10;;;10.35;;
69220;SDS011;56331;51.992;20.910;2022-10-15T03:57:39;12.50;;;10.30;;
69220;SDS011;56331;51.992;20.910;2022-10-15T04:03:08;11.45;;;9.23;;
69220;SDS011;56331;51.992;20.910;2022-10-15T04:05:34;11.90;;;9.00;;
69220;SDS011;56331;51.992;20.910;2022-10-15T04:08:02;12.82;;;9.68;;
69220;SDS011;56331;51.992;20.910;2022-10-15T04:10:29;11.20;;;8.98;;
69220;SDS011;56331;51.992;20.910;2022-10-15T04:12:55;11.68;;;9.08;;
69220;SDS011;56331;51.992;20.910;2022-10-15T04:15:21;11.63;;;8.98;;
69220;SDS011;56331;51.992;20.910;2022-10-15T04:17:48;11.38;;;8.90;;
69220;SDS011;56331;51.992;20.910;2022-10-15T04:20:16;10.58;;;8.78;;
69220;SDS011;56331;51.992;20.910;2022-10-15T04:22:43;9.93;;;8.73;;
69220;SDS011;56331;51.992;20.910;2022-10-15T04:25:09;11.12;;;9.30;;
69220;SDS011;56331;51.992;20.910;2022-10-15T04:27:36;10.90;;;8.48;;
69220;SDS011;56331;51.992;20.910;2022-10-15T04:30:03;10.35;;;8.13;;
69220;SDS011;56331;51.992;20.910;2022-10-15T04:32:29;10.00;;;8.10;;
69220;SDS011;56331;51.992;20.910;2022-10-15T04:34:56;10.20;;;8.70;;
69220;SDS011;56331;51.992;20.910;2022-10-15T04:37:22;10.15;;;8.05;;
69220;SDS011;56331;51.992;20.910;2022-10-15T04:39:49;10.78;;;8.48;;
69220;SDS011;56331;51.992;20.910;2022-10-15T04:42:15;11.38;;;8.43;;
69220;SDS011;56331;51.992;20.910;2022-10-15T04:44:42;10.18;;;8.38;;
69220;SDS011;56331;51.992;20.910;2022-10-15T04:47:08;10.03;;;8.00;;
69220;SDS011;56331;51.992;20.910;2022-10-15T04:49:35;10.15;;;7.70;;
69220;SDS011;56331;51.992;20.910;2022-10-15T04:52:01;10.53;;;8.00;;
69220;SDS011;56331;51.992;20.910;2022-10-15T04:54:28;10.23;;;8.50;;
69220;SDS011;56331;51.992;20.910;2022-10-15T04:56:54;10.43;;;7.70;;
69220;SDS011;56331;51.992;20.910;2022-10-15T04:59:21;10.90;;;7.85;;
69220;SDS011;56331;51.992;20.910;2022-10-15T05:01:47;9.88;;;8.20;;
69220;SDS011;56331;51.992;20.910;2022-10-15T05:04:13;10.72;;;8.28;;
69220;SDS011;56331;51.992;20.910;2022-10-15T05:06:40;11.15;;;8.30;;
69220;SDS011;56331;51.992;20.910;2022-10-15T05:09:06;9.73;;;8.30;;
69220;SDS011;56331;51.992;20.910;2022-10-15T05:11:34;11.40;;;8.05;;
69220;SDS011;56331;51.992;20.910;2022-10-15T05:16:30;9.63;;;7.70;;
69220;SDS011;56331;51.992;20.910;2022-10-15T05:19:00;9.95;;;8.38;;
69220;SDS011;56331;51.992;20.910;2022-10-15T05:21:28;11.53;;;8.55;;
69220;SDS011;56331;51.992;20.910;2022-10-15T05:23:56;10.00;;;8.03;;
69220;SDS011;56331;51.992;20.910;2022-10-15T05:26:25;9.68;;;8.15;;
69220;SDS011;56331;51.992;20.910;2022-10-15T05:28:54;10.40;;;8.33;;
69220;SDS011;56331;51.992;20.910;2022-10-15T05:31:23;10.80;;;8.45;;
69220;SDS011;56331;51.992;20.910;2022-10-15T05:33:52;11.65;;;8.10;;
69220;SDS011;56331;51.992;20.910;2022-10-15T05:36:20;11.38;;;8.18;;
69220;SDS011;56331;51.992;20.910;2022-10-15T05:38:55;10.70;;;7.58;;
69220;SDS011;56331;51.992;20.910;2022-10-15T05:41:23;9.23;;;7.78;;
69220;SDS011;56331;51.992;20.910;2022-10-15T05:43:51;12.50;;;8.53;;
69220;SDS011;56331;51.992;20.910;2022-10-15T05:46:18;11.57;;;8.25;;
69220;SDS011;56331;51.992;20.910;2022-10-15T05:48:49;10.23;;;7.58;;
69220;SDS011;56331;51.992;20.910;2022-10-15T05:51:20;10.78;;;8.00;;
69220;SDS011;56331;51.992;20.910;2022-10-15T05:53:50;8.75;;;7.20;;
69220;SDS011;56331;51.992;20.910;2022-10-15T05:56:17;11.48;;;8.13;;
69220;SDS011;56331;51.992;20.910;2022-10-15T05:58:43;10.80;;;7.70;;
69220;SDS011;56331;51.992;20.910;2022-10-15T06:01:10;10.53;;;7.87;;
69220;SDS011;56331;51.992;20.910;2022-10-15T06:03:39;11.93;;;9.38;;
69220;SDS011;56331;51.992;20.910;2022-10-15T06:06:12;9.63;;;7.95;;
69220;SDS011;56331;51.992;20.910;2022-10-15T06:08:40;11.83;;;8.60;;
69220;SDS011;56331;51.992;20.910;2022-10-15T06:11:07;11.83;;;8.60;;
69220;SDS011;56331;51.992;20.910;2022-10-15T06:13:33;10.98;;;9.20;;
69220;SDS011;56331;51.992;20.910;2022-10-15T06:16:04;12.10;;;9.03;;
69220;SDS011;56331;51.992;20.910;2022-10-15T06:18:29;12.10;;;9.05;;
69220;SDS011;56331;51.992;20.910;2022-10-15T06:23:37;10.85;;;8.60;;
69220;SDS011;56331;51.992;20.910;2022-10-15T06:26:04;12.95;;;9.20;;
69220;SDS011;56331;51.992;20.910;2022-10-15T06:28:32;10.93;;;8.40;;
69220;SDS011;56331;51.992;20.910;2022-10-15T06:30:59;10.48;;;7.92;;
69220;SDS011;56331;51.992;20.910;2022-10-15T06:33:25;11.75;;;8.68;;
69220;SDS011;56331;51.992;20.910;2022-10-15T06:35:53;11.97;;;9.23;;
69220;SDS011;56331;51.992;20.910;2022-10-15T06:38:22;12.50;;;8.95;;
69220;SDS011;56331;51.992;20.910;2022-10-15T06:40:49;13.58;;;9.58;;
69220;SDS011;56331;51.992;20.910;2022-10-15T06:43:16;11.90;;;8.73;;
69220;SDS011;56331;51.992;20.910;2022-10-15T06:45:42;12.03;;;9.00;;
69220;SDS011;56331;51.992;20.910;2022-10-15T06:48:09;12.07;;;8.95;;
69220;SDS011;56331;51.992;20.910;2022-10-15T06:50:37;11.38;;;8.88;;
69220;SDS011;56331;51.992;20.910;2022-10-15T06:53:04;12.90;;;9.95;;
69220;SDS011;56331;51.992;20.910;2022-10-15T06:55:31;11.08;;;8.83;;
69220;SDS011;56331;51.992;20.910;2022-10-15T06:57:58;12.25;;;9.15;;
69220;SDS011;56331;51.992;20.910;2022-10-15T07:00:24;11.43;;;8.53;;
69220;SDS011;56331;51.992;20.910;2022-10-15T07:02:52;12.40;;;8.95;;
69220;SDS011;56331;51.992;20.910;2022-10-15T07:05:19;10.88;;;8.68;;
69220;SDS011;56331;51.992;20.910;2022-10-15T07:07:58;11.57;;;8.83;;
69220;SDS011;56331;51.992;20.910;2022-10-15T07:10:26;11.53;;;8.80;;
69220;SDS011;56331;51.992;20.910;2022-10-15T07:12:53;13.00;;;8.90;;
69220;SDS011;56331;51.992;20.910;2022-10-15T07:15:19;10.38;;;8.75;;
69220;SDS011;56331;51.992;20.910;2022-10-15T07:17:47;12.73;;;8.90;;
69220;SDS011;56331;51.992;20.910;2022-10-15T07:20:19;13.18;;;9.25;;
69220;SDS011;56331;51.992;20.910;2022-10-15T07:22:43;14.83;;;9.58;;
69220;SDS011;56331;51.992;20.910;2022-10-15T07:25:10;12.60;;;9.03;;
69220;SDS011;56331;51.992;20.910;2022-10-15T07:27:37;12.78;;;8.70;;
69220;SDS011;56331;51.992;20.910;2022-10-15T07:30:04;13.08;;;9.28;;
69220;SDS011;56331;51.992;20.910;2022-10-15T07:32:32;11.63;;;9.43;;
69220;SDS011;56331;51.992;20.910;2022-10-15T07:34:59;12.03;;;9.35;;
69220;SDS011;56331;51.992;20.910;2022-10-15T07:37:26;13.38;;;9.90;;
69220;SDS011;56331;51.992;20.910;2022-10-15T07:39:52;11.53;;;9.50;;
69220;SDS011;56331;51.992;20.910;2022-10-15T07:42:19;12.20;;;9.25;;
69220;SDS011;56331;51.992;20.910;2022-10-15T07:44:45;12.00;;;8.95;;
69220;SDS011;56331;51.992;20.910;2022-10-15T07:47:11;12.37;;;9.90;;
69220;SDS011;56331;51.992;20.910;2022-10-15T07:49:38;12.35;;;9.28;;
69220;SDS011;56331;51.992;20.910;2022-10-15T07:52:04;10.88;;;8.80;;
69220;SDS011;56331;51.992;20.910;2022-10-15T07:54:33;11.70;;;8.95;;
69220;SDS011;56331;51.992;20.910;2022-10-15T07:57:00;12.30;;;9.65;;
69220;SDS011;56331;51.992;20.910;2022-10-15T07:59:26;11.35;;;9.33;;
69220;SDS011;56331;51.992;20.910;2022-10-15T08:01:53;13.50;;;9.55;;
69220;SDS011;56331;51.992;20.910;2022-10-15T08:04:19;12.35;;;8.75;;
69220;SDS011;56331;51.992;20.910;2022-10-15T08:06:45;11.45;;;8.90;;
69220;SDS011;56331;51.992;20.910;2022-10-15T08:09:11;11.40;;;9.40;;
69220;SDS011;56331;51.992;20.910;2022-10-15T08:11:38;11.97;;;9.60;;
69220;SDS011;56331;51.992;20.910;2022-10-15T08:14:05;10.28;;;8.60;;
69220;SDS011;56331;51.992;20.910;2022-10-15T08:16:31;13.10;;;10.63;;
69220;SDS011;56331;51.992;20.910;2022-10-15T08:18:58;11.68;;;9.35;;
69220;SDS011;56331;51.992;20.910;2022-10-15T08:21:25;13.20;;;9.85;;
69220;SDS011;56331;51.992;20.910;2022-10-15T08:23:52;11.78;;;9.23;;
69220;SDS011;56331;51.992;20.910;2022-10-15T08:26:18;11.60;;;9.33;;
69220;SDS011;56331;51.992;20.910;2022-10-15T08:28:45;13.98;;;10.05;;
69220;SDS011;56331;51.992;20.910;2022-10-15T08:31:11;11.68;;;9.78;;
69220;SDS011;56331;51.992;20.910;2022-10-15T08:33:38;11.75;;;8.53;;
69220;SDS011;56331;51.992;20.910;2022-10-15T08:36:05;11.28;;;9.40;;
69220;SDS011;56331;51.992;20.910;2022-10-15T08:38:33;13.05;;;9.93;;
69220;SDS011;56331;51.992;20.910;2022-10-15T08:41:00;11.03;;;8.95;;
69220;SDS011;56331;51.992;20.910;2022-10-15T08:43:32;12.37;;;10.35;;
69220;SDS011;56331;51.992;20.910;2022-10-15T08:46:03;12.45;;;9.65;;
69220;SDS011;56331;51.992;20.910;2022-10-15T08:48:45;12.88;;;9.80;;
69220;SDS011;56331;51.992;20.910;2022-10-15T08:51:20;13.03;;;10.07;;
69220;SDS011;56331;51.992;20.910;2022-10-15T08:53:55;11.43;;;9.20;;
69220;SDS011;56331;51.992;20.910;2022-10-15T08:56:21;11.35;;;9.43;;
69220;SDS011;56331;51.992;20.910;2022-10-15T08:58:58;13.60;;;9.45;;
69220;SDS011;56331;51.992;20.910;2022-10-15T09:04:31;12.88;;;9.85;;
69220;SDS011;56331;51.992;20.910;2022-10-15T09:07:06;12.35;;;9.23;;
69220;SDS011;56331;51.992;20.910;2022-10-15T09:09:43;12.23;;;9.88;;
69220;SDS011;56331;51.992;20.910;2022-10-15T09:15:17;11.70;;;9.73;;
69220;SDS011;56331;51.992;20.910;2022-10-15T09:17:47;12.30;;;9.80;;
69220;SDS011;56331;51.992;20.910;2022-10-15T09:20:18;11.50;;;9.03;;
69220;SDS011;56331;51.992;20.910;2022-10-15T09:25:16;12.82;;;9.70;;
69220;SDS011;56331;51.992;20.910;2022-10-15T09:27:45;11.83;;;9.75;;
69220;SDS011;56331;51.992;20.910;2022-10-15T09:32:59;12.30;;;9.63;;
69220;SDS011;56331;51.992;20.910;2022-10-15T09:40:55;11.45;;;8.63;;
69220;SDS011;56331;51.992;20.910;2022-10-15T09:43:27;12.65;;;9.30;;
69220;SDS011;56331;51.992;20.910;2022-10-15T09:46:01;12.70;;;9.73;;
69220;SDS011;56331;51.992;20.910;2022-10-15T09:48:37;13.45;;;9.55;;
69220;SDS011;56331;51.992;20.910;2022-10-15T09:51:24;11.30;;;8.60;;
69220;SDS011;56331;51.992;20.910;2022-10-15T09:56:38;11.43;;;8.90;;
69220;SDS011;56331;51.992;20.910;2022-10-15T09:59:03;13.25;;;10.03;;
69220;SDS011;56331;51.992;20.910;2022-10-15T10:01:31;11.97;;;9.30;;
69220;SDS011;56331;51.992;20.910;2022-10-15T10:04:16;13.00;;;9.70;;
69220;SDS011;56331;51.992;20.910;2022-10-15T10:06:45;11.63;;;8.75;;
69220;SDS011;56331;51.992;20.910;2022-10-15T10:09:22;11.60;;;9.33;;
69220;SDS011;56331;51.992;20.910;2022-10-15T10:11:55;11.30;;;8.68;;
69220;SDS011;56331;51.992;20.910;2022-10-15T10:14:27;11.35;;;9.45;;
69220;SDS011;56331;51.992;20.910;2022-10-15T10:19:46;12.13;;;9.20;;
69220;SDS011;56331;51.992;20.910;2022-10-15T10:22:30;11.93;;;8.98;;
69220;SDS011;56331;51.992;20.910;2022-10-15T10:27:28;10.25;;;8.60;;
69220;SDS011;56331;51.992;20.910;2022-10-15T10:29:56;10.70;;;8.40;;
69220;SDS011;56331;51.992;20.910;2022-10-15T10:32:32;10.93;;;8.78;;
69220;SDS011;56331;51.992;20.910;2022-10-15T10:34:57;12.58;;;8.35;;
69220;SDS011;56331;51.992;20.910;2022-10-15T10:37:26;12.20;;;8.97;;
69220;SDS011;56331;51.992;20.910;2022-10-15T10:39:58;11.50;;;8.80;;
69220;SDS011;56331;51.992;20.910;2022-10-15T10:42:27;10.60;;;8.75;;
69220;SDS011;56331;51.992;20.910;2022-10-15T10:47:45;10.63;;;8.60;;
69220;SDS011;56331;51.992;20.910;2022-10-15T10:50:25;11.65;;;8.93;;
69220;SDS011;56331;51.992;20.910;2022-10-15T10:52:54;13.05;;;8.83;;
69220;SDS011;56331;51.992;20.910;2022-10-15T10:55:22;11.22;;;8.20;;
69220;SDS011;56331;51.992;20.910;2022-10-15T11:00:35;12.20;;;8.95;;
69220;SDS011;56331;51.992;20.910;2022-10-15T11:08:51;15.68;;;8.85;;
69220;SDS011;56331;51.992;20.910;2022-10-15T11:11:28;12.10;;;8.25;;
69220;SDS011;56331;51.992;20.910;2022-10-15T11:16:55;15.25;;;9.40;;
69220;SDS011;56331;51.992;20.910;2022-10-15T11:19:24;10.43;;;8.70;;
69220;SDS011;56331;51.992;20.910;2022-10-15T11:24:58;11.55;;;8.08;;
69220;SDS011;56331;51.992;20.910;2022-10-15T11:27:41;11.35;;;8.33;;
69220;SDS011;56331;51.992;20.910;2022-10-15T11:30:29;12.55;;;8.58;;
69220;SDS011;56331;51.992;20.910;2022-10-15T11:35:58;12.33;;;8.20;;
69220;SDS011;56331;51.992;20.910;2022-10-15T11:38:28;12.85;;;8.08;;
69220;SDS011;56331;51.992;20.910;2022-10-15T11:46:29;13.30;;;8.48;;
69220;SDS011;56331;51.992;20.910;2022-10-15T11:55:16;9.68;;;7.80;;
69220;SDS011;56331;51.992;20.910;2022-10-15T11:57:42;9.53;;;7.35;;
69220;SDS011;56331;51.992;20.910;2022-10-15T12:02:50;10.82;;;8.15;;
69220;SDS011;56331;51.992;20.910;2022-10-15T12:05:21;10.00;;;8.33;;
69220;SDS011;56331;51.992;20.910;2022-10-15T12:07:55;10.30;;;8.00;;
69220;SDS011;56331;51.992;20.910;2022-10-15T12:13:09;9.75;;;8.03;;
69220;SDS011;56331;51.992;20.910;2022-10-15T12:15:41;9.08;;;7.15;;
69220;SDS011;56331;51.992;20.910;2022-10-15T12:18:33;11.20;;;7.90;;
69220;SDS011;56331;51.992;20.910;2022-10-15T12:23:58;9.68;;;7.87;;
69220;SDS011;56331;51.992;20.910;2022-10-15T12:26:32;12.50;;;7.65;;
69220;SDS011;56331;51.992;20.910;2022-10-15T12:29:00;10.48;;;7.70;;
69220;SDS011;56331;51.992;20.910;2022-10-15T12:32:16;10.43;;;7.53;;
69220;SDS011;56331;51.992;20.910;2022-10-15T12:34:24;10.48;;;7.67;;
69220;SDS011;56331;51.992;20.910;2022-10-15T12:36:59;10.93;;;7.67;;
69220;SDS011;56331;51.992;20.910;2022-10-15T12:39:28;9.70;;;7.72;;
69220;SDS011;56331;51.992;20.910;2022-10-15T12:41:56;10.75;;;8.58;;
69220;SDS011;56331;51.992;20.910;2022-10-15T12:44:24;11.38;;;8.80;;
69220;SDS011;56331;51.992;20.910;2022-10-15T12:46:57;11.93;;;7.75;;
69220;SDS011;56331;51.992;20.910;2022-10-15T12:52:00;10.60;;;7.90;;
69220;SDS011;56331;51.992;20.910;2022-10-15T12:54:34;11.53;;;7.90;;
69220;SDS011;56331;51.992;20.910;2022-10-15T12:57:13;11.43;;;8.00;;
69220;SDS011;56331;51.992;20.910;2022-10-15T12:59:53;10.00;;;8.35;;
69220;SDS011;56331;51.992;20.910;2022-10-15T13:02:37;9.43;;;8.05;;
69220;SDS011;56331;51.992;20.910;2022-10-15T13:05:23;10.60;;;8.23;;
69220;SDS011;56331;51.992;20.910;2022-10-15T13:10:15;12.40;;;8.33;;
69220;SDS011;56331;51.992;20.910;2022-10-15T13:12:47;11.90;;;8.83;;
69220;SDS011;56331;51.992;20.910;2022-10-15T13:15:17;12.82;;;8.78;;
69220;SDS011;56331;51.992;20.910;2022-10-15T13:17:45;9.68;;;8.00;;
69220;SDS011;56331;51.992;20.910;2022-10-15T13:20:45;10.20;;;8.20;;
69220;SDS011;56331;51.992;20.910;2022-10-15T13:23:06;9.83;;;8.20;;
69220;SDS011;56331;51.992;20.910;2022-10-15T13:25:34;10.95;;;9.00;;
69220;SDS011;56331;51.992;20.910;2022-10-15T13:28:01;11.15;;;8.08;;
69220;SDS011;56331;51.992;20.910;2022-10-15T13:30:27;11.28;;;7.97;;
69220;SDS011;56331;51.992;20.910;2022-10-15T13:32:54;11.90;;;8.28;;
69220;SDS011;56331;51.992;20.910;2022-10-15T13:35:23;10.08;;;7.90;;
69220;SDS011;56331;51.992;20.910;2022-10-15T13:37:53;10.45;;;7.83;;
69220;SDS011;56331;51.992;20.910;2022-10-15T13:40:22;11.70;;;8.28;;
69220;SDS011;56331;51.992;20.910;2022-10-15T13:45:31;12.05;;;8.58;;
69220;SDS011;56331;51.992;20.910;2022-10-15T13:47:58;10.68;;;7.45;;
69220;SDS011;56331;51.992;20.910;2022-10-15T13:55:43;10.70;;;7.85;;
69220;SDS011;56331;51.992;20.910;2022-10-15T13:58:25;9.55;;;7.28;;
69220;SDS011;56331;51.992;20.910;2022-10-15T14:00:57;10.50;;;8.00;;
69220;SDS011;56331;51.992;20.910;2022-10-15T14:03:28;11.53;;;7.73;;
69220;SDS011;56331;51.992;20.910;2022-10-15T14:05:57;11.00;;;8.18;;
69220;SDS011;56331;51.992;20.910;2022-10-15T14:08:38;11.20;;;8.08;;
69220;SDS011;56331;51.992;20.910;2022-10-15T14:11:05;8.88;;;7.42;;
69220;SDS011;56331;51.992;20.910;2022-10-15T14:13:31;8.33;;;7.42;;
69220;SDS011;56331;51.992;20.910;2022-10-15T14:15:59;10.95;;;8.05;;
69220;SDS011;56331;51.992;20.910;2022-10-15T14:18:45;11.50;;;7.12;;
69220;SDS011;56331;51.992;20.910;2022-10-15T14:21:11;8.48;;;6.95;;
69220;SDS011;56331;51.992;20.910;2022-10-15T14:23:39;12.50;;;7.97;;
69220;SDS011;56331;51.992;20.910;2022-10-15T14:26:08;9.43;;;7.42;;
69220;SDS011;56331;51.992;20.910;2022-10-15T14:28:36;11.15;;;7.87;;
69220;SDS011;56331;51.992;20.910;2022-10-15T14:31:04;10.18;;;7.67;;
69220;SDS011;56331;51.992;20.910;2022-10-15T14:36:21;11.03;;;8.55;;
69220;SDS011;56331;51.992;20.910;2022-10-15T14:38:46;9.10;;;7.85;;
69220;SDS011;56331;51.992;20.910;2022-10-15T14:41:28;10.13;;;7.85;;
69220;SDS011;56331;51.992;20.910;2022-10-15T14:44:04;10.13;;;7.80;;
69220;SDS011;56331;51.992;20.910;2022-10-15T14:46:37;9.58;;;7.60;;
69220;SDS011;56331;51.992;20.910;2022-10-15T14:51:29;10.68;;;8.50;;
69220;SDS011;56331;51.992;20.910;2022-10-15T14:53:56;10.50;;;8.43;;
69220;SDS011;56331;51.992;20.910;2022-10-15T14:56:28;10.13;;;7.87;;
69220;SDS011;56331;51.992;20.910;2022-10-15T14:58:54;10.40;;;7.92;;
69220;SDS011;56331;51.992;20.910;2022-10-15T15:01:24;10.65;;;8.15;;
69220;SDS011;56331;51.992;20.910;2022-10-15T15:03:54;10.05;;;7.95;;
69220;SDS011;56331;51.992;20.910;2022-10-15T15:06:21;10.72;;;8.35;;
69220;SDS011;56331;51.992;20.910;2022-10-15T15:08:48;9.83;;;8.23;;
69220;SDS011;56331;51.992;20.910;2022-10-15T15:11:17;9.73;;;7.58;;
69220;SDS011;56331;51.992;20.910;2022-10-15T15:13:44;9.93;;;7.90;;
69220;SDS011;56331;51.992;20.910;2022-10-15T15:16:13;9.13;;;8.00;;
69220;SDS011;56331;51.992;20.910;2022-10-15T15:18:41;9.98;;;8.20;;
69220;SDS011;56331;51.992;20.910;2022-10-15T15:21:10;9.80;;;7.72;;
69220;SDS011;56331;51.992;20.910;2022-10-15T15:23:44;11.22;;;8.70;;
69220;SDS011;56331;51.992;20.910;2022-10-15T15:26:12;11.95;;;8.20;;
69220;SDS011;56331;51.992;20.910;2022-10-15T15:28:38;10.32;;;8.18;;
69220;SDS011;56331;51.992;20.910;2022-10-15T15:31:05;10.23;;;8.28;;
69220;SDS011;56331;51.992;20.910;2022-10-15T15:33:34;9.60;;;8.23;;
69220;SDS011;56331;51.992;20.910;2022-10-15T15:36:01;10.85;;;8.73;;
69220;SDS011;56331;51.992;20.910;2022-10-15T15:38:30;9.78;;;7.92;;
69220;SDS011;56331;51.992;20.910;2022-10-15T15:41:00;10.32;;;8.20;;
69220;SDS011;56331;51.992;20.910;2022-10-15T15:43:30;10.93;;;8.53;;
69220;SDS011;56331;51.992;20.910;2022-10-15T15:45:57;10.72;;;8.08;;
69220;SDS011;56331;51.992;20.910;2022-10-15T15:48:23;10.45;;;8.00;;
69220;SDS011;56331;51.992;20.910;2022-10-15T15:50:50;13.15;;;8.35;;
69220;SDS011;56331;51.992;20.910;2022-10-15T15:53:17;10.13;;;8.23;;
69220;SDS011;56331;51.992;20.910;2022-10-15T15:55:43;9.60;;;8.30;;
69220;SDS011;56331;51.992;20.910;2022-10-15T15:58:09;12.95;;;8.38;;
69220;SDS011;56331;51.992;20.910;2022-10-15T16:00:36;11.00;;;8.83;;
69220;SDS011;56331;51.992;20.910;2022-10-15T16:03:02;11.55;;;7.92;;
69220;SDS011;56331;51.992;20.910;2022-10-15T16:05:29;10.82;;;7.97;;
69220;SDS011;56331;51.992;20.910;2022-10-15T16:07:55;10.85;;;8.73;;
69220;SDS011;56331;51.992;20.910;2022-10-15T16:10:23;11.53;;;8.45;;
69220;SDS011;56331;51.992;20.910;2022-10-15T16:12:50;11.85;;;8.00;;
69220;SDS011;56331;51.992;20.910;2022-10-15T16:15:16;9.78;;;7.87;;
69220;SDS011;56331;51.992;20.910;2022-10-15T16:17:43;9.85;;;8.38;;
69220;SDS011;56331;51.992;20.910;2022-10-15T16:20:09;11.65;;;8.85;;
69220;SDS011;56331;51.992;20.910;2022-10-15T16:22:36;9.63;;;8.10;;
69220;SDS011;56331;51.992;20.910;2022-10-15T16:25:03;11.35;;;8.35;;
69220;SDS011;56331;51.992;20.910;2022-10-15T16:27:30;11.83;;;8.80;;
69220;SDS011;56331;51.992;20.910;2022-10-15T16:29:58;9.05;;;7.53;;
69220;SDS011;56331;51.992;20.910;2022-10-15T16:32:25;11.97;;;8.68;;
69220;SDS011;56331;51.992;20.910;2022-10-15T16:34:52;12.45;;;8.30;;